Time;durP1;ratioP1;P1;durP2;ratioP2;P2;SDS_P1;SDS_P2;PMS_P1;PMS_P2;Temp;Humidity;BMP_temperature;BMP_pressure;BME280_temperature;BME280_humidity;BME280_pressure;Samples;Min_cycle;Max_cycle;Signal;HPM_P1;HPM_P2
2023/07/18 00:01:41;;;;;;;17.90;10.57;;;;;;;24.48;77.23;95002.66;4984802;28;20172;-82
2023/07/18 00:04:07;;;;;;;16.98;11.15;;;;;;;24.78;77.03;95044.47;4987595;28;20172;-82
2023/07/18 00:06:32;;;;;;;15.57;11.00;;;;;;;24.76;77.04;95043.94;4987822;28;20177;-82
2023/07/18 00:08:58;;;;;;;17.10;10.13;;;;;;;24.51;76.63;95010.16;4987551;28;20177;-82
2023/07/18 00:11:23;;;;;;;13.93;10.70;;;;;;;24.39;76.79;94983.69;4975526;28;20328;-82
2023/07/18 00:13:49;;;;;;;12.73;9.95;;;;;;;24.56;76.57;95028.91;4984327;28;20177;-82
2023/07/18 00:16:15;;;;;;;14.73;10.43;;;;;;;24.53;77.21;95042.19;4967784;28;20174;-82
2023/07/18 00:18:40;;;;;;;16.15;9.88;;;;;;;24.55;77.80;95040.81;4965834;28;20248;-82
2023/07/18 00:21:07;;;;;;;16.42;10.18;;;;;;;24.22;76.57;94978.06;4983409;28;20161;-82
2023/07/18 00:23:33;;;;;;;15.55;10.02;;;;;;;24.54;77.18;95033.81;4985013;28;20166;-81
2023/07/18 00:25:59;;;;;;;19.50;10.75;;;;;;;24.55;77.14;95029.25;4966692;28;20666;-81
2023/07/18 00:28:24;;;;;;;12.70;9.80;;;;;;;24.15;76.77;94983.00;4993088;28;20165;-81
2023/07/18 00:30:50;;;;;;;17.27;10.20;;;;;;;24.51;77.42;95030.91;4987046;28;20332;-81
2023/07/18 00:33:15;;;;;;;14.18;9.73;;;;;;;24.35;76.51;94995.38;4980010;28;20632;-81
2023/07/18 00:35:43;;;;;;;14.25;8.82;;;;;;;24.27;76.43;94977.19;4986106;28;20177;-81
2023/07/18 00:38:11;;;;;;;12.35;9.02;;;;;;;24.62;76.48;95041.22;4986962;28;20373;-81
2023/07/18 00:40:37;;;;;;;11.52;9.48;;;;;;;24.12;76.39;94959.38;4985847;28;20170;-81
2023/07/18 00:43:03;;;;;;;13.65;9.10;;;;;;;23.93;75.52;94943.25;4989863;28;20169;-81
2023/07/18 00:45:28;;;;;;;15.40;9.30;;;;;;;24.40;76.11;95011.41;4986860;28;20569;-82
2023/07/18 00:47:54;;;;;;;12.15;9.20;;;;;;;24.37;75.89;95007.44;4992836;28;20253;-82
2023/07/18 00:50:20;;;;;;;13.63;8.85;;;;;;;24.19;76.20;94972.44;4983713;28;20627;-81
2023/07/18 00:52:50;;;;;;;14.13;9.02;;;;;;;24.46;76.07;95017.53;4984448;28;20292;-81
2023/07/18 00:55:16;;;;;;;10.98;8.52;;;;;;;24.38;76.29;95008.25;4979547;28;20264;-82
2023/07/18 00:57:44;;;;;;;12.80;9.30;;;;;;;24.44;75.78;95021.31;5006271;28;20176;-81
2023/07/18 01:00:11;;;;;;;11.75;9.63;;;;;;;24.43;76.12;95016.22;5006329;28;20179;-81
2023/07/18 01:02:40;;;;;;;12.32;9.52;;;;;;;24.08;76.48;94961.84;4999361;28;20196;-81
2023/07/18 01:05:09;;;;;;;15.23;10.00;;;;;;;24.07;76.32;94967.50;5005087;28;20650;-81
2023/07/18 01:07:35;;;;;;;16.65;10.60;;;;;;;24.33;76.35;95003.72;5006381;28;20634;-81
2023/07/18 01:10:13;;;;;;;30.48;16.92;;;;;;;24.35;76.49;95009.63;5004674;28;20180;-81
2023/07/18 01:12:38;;;;;;;40.22;21.30;;;;;;;24.32;76.71;95007.50;5000163;28;20399;-81
2023/07/18 01:15:04;;;;;;;47.90;25.33;;;;;;;24.17;76.89;94980.81;4997770;28;20308;-81
2023/07/18 01:17:31;;;;;;;46.97;25.77;;;;;;;23.88;76.43;94942.50;5005738;28;20196;-81
2023/07/18 01:19:57;;;;;;;46.70;26.77;;;;;;;24.14;76.93;94996.72;5005824;28;20200;-81
2023/07/18 01:22:23;;;;;;;42.63;24.73;;;;;;;23.94;77.43;94970.94;4985563;28;20240;-81
2023/07/18 01:24:48;;;;;;;45.33;24.02;;;;;;;23.97;77.46;94991.88;5002849;28;20185;-81
2023/07/18 01:27:14;;;;;;;34.60;21.58;;;;;;;23.40;77.99;94920.31;5003340;28;20268;-81
2023/07/18 01:29:39;;;;;;;28.30;19.38;;;;;;;23.55;78.47;94957.78;5005565;28;20183;-81
2023/07/18 01:32:05;;;;;;;28.83;17.77;;;;;;;23.55;78.97;94972.00;5005491;28;20315;-81
2023/07/18 01:34:31;;;;;;;22.80;14.80;;;;;;;23.25;78.79;94930.19;4997310;28;20173;-81
2023/07/18 01:36:57;;;;;;;22.23;13.93;;;;;;;23.46;79.29;94964.84;5005500;28;20581;-82
2023/07/18 01:39:22;;;;;;;19.27;13.20;;;;;;;23.73;79.49;95013.44;5004711;28;20168;-81
2023/07/18 01:41:49;;;;;;;19.77;12.55;;;;;;;23.70;79.66;95025.56;4997967;28;20227;-81
2023/07/18 01:44:14;;;;;;;15.68;11.93;;;;;;;23.23;79.77;94956.53;4993566;28;20186;-81
2023/07/18 01:46:40;;;;;;;18.08;11.93;;;;;;;23.46;79.96;94997.09;5009493;28;20290;-81
2023/07/18 01:49:08;;;;;;;15.93;11.85;;;;;;;23.08;80.03;94945.19;5007708;28;20215;-81
2023/07/18 01:51:34;;;;;;;18.65;13.85;;;;;;;23.21;79.93;94964.09;4995987;28;20200;-81
2023/07/18 01:53:59;;;;;;;20.77;13.30;;;;;;;23.41;80.59;94999.88;4993861;28;20176;-81
2023/07/18 01:56:25;;;;;;;20.95;13.93;;;;;;;23.07;80.35;94948.97;4982122;28;20340;-81
2023/07/18 01:58:50;;;;;;;25.70;16.83;;;;;;;23.36;80.68;95013.34;4957104;28;20186;-81
2023/07/18 02:01:16;;;;;;;29.65;17.05;;;;;;;23.31;80.97;94995.41;4958044;28;20674;-81
2023/07/18 02:03:41;;;;;;;21.58;15.18;;;;;;;23.17;80.67;94975.72;4987705;28;20185;-81
2023/07/18 02:06:07;;;;;;;25.70;16.55;;;;;;;22.84;80.24;94916.44;4987542;28;20208;-81
2023/07/18 02:08:32;;;;;;;24.15;15.35;;;;;;;23.54;80.38;95016.09;4983361;28;20220;-81
2023/07/18 02:10:57;;;;;;;16.25;12.45;;;;;;;23.49;80.33;95018.88;4973256;28;20601;-81
2023/07/18 02:13:23;;;;;;;18.73;14.07;;;;;;;23.56;80.45;95024.69;4982967;28;20287;-81
2023/07/18 02:15:48;;;;;;;21.92;13.43;;;;;;;23.49;80.17;95002.75;4988204;28;20177;-81
2023/07/18 02:18:14;;;;;;;23.08;12.07;;;;;;;23.58;80.25;95017.16;4984868;28;20169;-81
2023/07/18 02:20:39;;;;;;;18.23;12.95;;;;;;;23.59;80.41;95026.00;4987313;28;20209;-81
2023/07/18 02:23:04;;;;;;;24.30;15.40;;;;;;;23.24;80.35;94968.91;4982096;28;20181;-81
2023/07/18 02:25:30;;;;;;;25.40;15.48;;;;;;;23.18;79.89;94964.66;4981110;28;20186;-81
2023/07/18 02:27:55;;;;;;;32.85;23.05;;;;;;;23.41;80.21;95006.03;4981994;28;20181;-81
2023/07/18 02:30:21;;;;;;;33.53;24.02;;;;;;;23.19;80.54;94977.00;4981803;28;20692;-82
2023/07/18 02:32:46;;;;;;;27.15;20.70;;;;;;;22.89;80.57;94937.88;4981835;28;20194;-82
2023/07/18 02:35:17;;;;;;;36.03;22.73;;;;;;;23.04;80.59;94963.75;4981795;28;20176;-82
2023/07/18 02:37:42;;;;;;;31.27;21.63;;;;;;;23.42;80.72;95042.59;4986512;28;20335;-82
2023/07/18 02:40:09;;;;;;;30.00;20.67;;;;;;;23.17;80.83;94998.00;4984907;28;20312;-82
2023/07/18 02:42:35;;;;;;;34.65;22.63;;;;;;;22.92;80.45;94961.44;4976979;28;20173;-82
2023/07/18 02:45:00;;;;;;;41.20;27.50;;;;;;;23.10;80.55;95000.19;4984710;28;20674;-82
2023/07/18 02:47:26;;;;;;;37.85;27.40;;;;;;;23.25;81.02;95034.97;4983405;28;20204;-82
2023/07/18 02:49:51;;;;;;;32.30;22.52;;;;;;;23.22;80.92;95024.00;4981501;28;20180;-82
2023/07/18 02:52:16;;;;;;;33.08;22.80;;;;;;;22.84;81.39;94967.44;4981387;28;20200;-81
2023/07/18 02:54:43;;;;;;;29.90;21.48;;;;;;;22.92;81.14;94977.56;4976475;28;20220;-81
2023/07/18 02:57:08;;;;;;;28.25;20.35;;;;;;;23.25;81.33;95026.13;4995678;28;20252;-80
2023/07/18 02:59:33;;;;;;;30.08;20.40;;;;;;;23.28;81.22;95034.38;5002322;28;20670;-80
2023/07/18 03:01:59;;;;;;;28.33;19.48;;;;;;;23.32;80.69;95034.63;5004316;28;20172;-80
2023/07/18 03:04:26;;;;;;;26.60;20.25;;;;;;;23.34;80.70;95032.47;5004216;28;20175;-80
2023/07/18 03:06:52;;;;;;;25.60;18.08;;;;;;;23.11;80.67;94990.25;5000898;28;20208;-80
2023/07/18 03:09:19;;;;;;;23.80;17.42;;;;;;;23.02;80.86;94979.34;4999335;28;20176;-80
2023/07/18 03:11:45;;;;;;;25.10;17.92;;;;;;;23.33;81.28;95030.84;5002373;28;20200;-80
2023/07/18 03:14:11;;;;;;;27.13;18.25;;;;;;;23.24;81.23;95008.38;4984377;28;20650;-80
2023/07/18 03:16:39;;;;;;;24.13;16.67;;;;;;;23.35;80.93;95014.47;5001740;28;20172;-80
2023/07/18 03:19:05;;;;;;;25.73;17.05;;;;;;;23.08;80.93;94974.72;5001817;28;20204;-80
2023/07/18 03:21:31;;;;;;;21.13;14.93;;;;;;;23.41;80.85;95024.84;5001280;28;20254;-80
2023/07/18 03:23:57;;;;;;;24.05;15.88;;;;;;;23.24;80.74;95000.34;5005602;28;20642;-80
2023/07/18 03:26:23;;;;;;;29.30;13.57;;;;;;;23.42;80.62;95028.34;5005718;28;20196;-78
2023/07/18 03:28:48;;;;;;;73.65;47.00;;;;;;;23.44;80.81;95026.94;4996313;28;20251;-78
2023/07/18 03:31:16;;;;;;;30.25;21.17;;;;;;;23.46;80.90;95032.84;5001907;28;20748;-79
2023/07/18 03:33:42;;;;;;;59.13;37.40;;;;;;;23.50;80.70;95036.59;4998329;28;20200;-80
2023/07/18 03:36:07;;;;;;;33.17;23.27;;;;;;;23.50;80.46;95023.16;5004601;28;20678;-81
2023/07/18 03:38:33;;;;;;;25.80;18.05;;;;;;;23.32;80.75;94984.38;5007495;28;20165;-81
2023/07/18 03:40:58;;;;;;;34.15;22.58;;;;;;;23.74;80.54;95046.53;5008894;28;20168;-81
2023/07/18 03:43:24;;;;;;;32.83;21.40;;;;;;;23.70;80.58;95032.84;4987210;28;20181;-81
2023/07/18 03:45:51;;;;;;;23.05;15.65;;;;;;;23.81;80.01;95063.09;5005149;28;20170;-81
2023/07/18 03:48:16;;;;;;;24.25;15.75;;;;;;;23.85;79.89;95059.56;5009827;28;20176;-80
2023/07/18 03:50:42;;;;;;;22.65;16.05;;;;;;;23.69;79.78;95021.31;5010768;28;20206;-82
2023/07/18 03:53:08;;;;;;;23.17;13.52;;;;;;;23.79;79.03;95027.63;5004274;28;20248;-82
2023/07/18 03:55:33;;;;;;;22.23;13.55;;;;;;;24.21;78.92;95080.63;4999084;28;20216;-82
2023/07/18 03:57:59;;;;;;;25.92;14.45;;;;;;;24.33;78.35;95083.66;4984635;28;20734;-82
2023/07/18 04:00:24;;;;;;;19.63;12.45;;;;;;;24.21;77.11;95076.06;4988512;28;20161;-82
2023/07/18 04:02:50;;;;;;;22.70;12.18;;;;;;;24.26;77.27;95085.94;4967143;28;20225;-82
2023/07/18 04:05:17;;;;;;;17.00;12.05;;;;;;;23.96;77.12;95041.38;4987063;28;20264;-81
2023/07/18 04:07:44;;;;;;;19.63;12.25;;;;;;;24.05;77.19;95053.88;4988507;28;20180;-82
2023/07/18 04:10:11;;;;;;;17.30;11.45;;;;;;;24.18;76.50;95065.81;4984443;28;20185;-82
2023/07/18 04:12:40;;;;;;;19.83;11.80;;;;;;;24.37;76.32;95084.69;4983567;28;20190;-82
2023/07/18 04:15:07;;;;;;;16.83;11.20;;;;;;;24.54;76.44;95094.94;4986613;28;20229;-82
2023/07/18 04:17:33;;;;;;;20.23;12.48;;;;;;;24.71;76.17;95092.53;4989382;28;20173;-82
2023/07/18 04:20:02;;;;;;;18.35;12.02;;;;;;;24.81;76.35;95089.69;4983841;28;20165;-81
2023/07/18 04:22:31;;;;;;;19.27;12.55;;;;;;;24.95;75.63;95076.25;4985251;28;21029;-82
2023/07/18 04:24:57;;;;;;;17.83;12.55;;;;;;;25.19;74.46;95083.09;4990043;28;20169;-81
2023/07/18 04:27:23;;;;;;;15.82;11.40;;;;;;;25.37;73.76;95077.94;4983096;28;20559;-83
2023/07/18 04:29:49;;;;;;;15.63;11.73;;;;;;;25.26;73.46;95038.78;4988231;28;20934;-83
2023/07/18 04:32:17;;;;;;;17.17;11.25;;;;;;;25.65;73.14;95079.59;4958225;28;20349;-82
2023/07/18 04:34:42;;;;;;;18.20;12.35;;;;;;;25.38;72.03;95012.13;4991415;28;20239;-82
2023/07/18 04:37:08;;;;;;;24.67;12.98;;;;;;;25.86;71.21;95083.44;4984810;28;20588;-82
2023/07/18 04:39:33;;;;;;;21.45;13.52;;;;;;;25.82;71.13;95052.78;4971878;28;20177;-82
2023/07/18 04:41:58;;;;;;;27.45;16.58;;;;;;;25.67;71.20;95022.66;4986390;28;20188;-82
2023/07/18 04:44:24;;;;;;;24.15;16.45;;;;;;;25.79;70.99;95026.41;4983749;28;20177;-82
2023/07/18 04:46:49;;;;;;;27.13;15.35;;;;;;;25.98;70.39;95041.66;4975549;28;20317;-82
2023/07/18 04:49:16;;;;;;;30.00;14.02;;;;;;;26.28;70.15;95076.13;4985204;28;20229;-82
2023/07/18 04:51:41;;;;;;;20.25;13.00;;;;;;;26.38;69.56;95067.78;4989641;28;20198;-82
2023/07/18 04:54:07;;;;;;;16.95;12.10;;;;;;;26.47;69.63;95065.97;4983733;28;20658;-81
2023/07/18 04:56:32;;;;;;;21.77;13.88;;;;;;;26.50;69.24;95048.34;4999223;28;20216;-82
2023/07/18 04:58:58;;;;;;;17.45;12.55;;;;;;;26.33;69.18;94996.91;5006114;28;20661;-81
2023/07/18 05:01:23;;;;;;;20.23;12.52;;;;;;;26.85;68.44;95049.41;5004332;28;20259;-81
2023/07/18 05:03:48;;;;;;;20.42;11.70;;;;;;;26.55;69.26;94978.78;5002804;28;20201;-81
2023/07/18 05:06:14;;;;;;;14.88;11.68;;;;;;;27.21;67.18;95054.72;5002971;28;20216;-82
2023/07/18 05:08:39;;;;;;;21.02;12.38;;;;;;;27.39;68.07;95051.78;5002774;28;21099;-82
2023/07/18 05:11:05;;;;;;;17.65;12.18;;;;;;;27.56;66.73;95059.22;5002696;28;20634;-82
2023/07/18 05:13:30;;;;;;;20.55;13.18;;;;;;;27.58;67.06;95034.56;5002828;28;20171;-81
2023/07/18 05:16:00;;;;;;;23.88;14.32;;;;;;;27.93;65.10;95065.22;4999521;28;20176;-81
2023/07/18 05:18:25;;;;;;;16.58;11.70;;;;;;;28.05;64.58;95068.88;5003566;28;20172;-82
2023/07/18 05:20:54;;;;;;;24.92;15.80;;;;;;;28.10;66.06;95049.00;5004573;28;20176;-82
2023/07/18 05:23:20;;;;;;;18.02;11.35;;;;;;;28.20;65.18;95037.06;5005722;28;20188;-81
2023/07/18 05:25:45;;;;;;;17.98;11.20;;;;;;;28.24;62.66;95028.00;4997545;28;20173;-81
2023/07/18 05:28:10;;;;;;;15.93;12.23;;;;;;;28.34;62.43;95024.19;5005559;28;20180;-82
2023/07/18 05:30:36;;;;;;;16.02;11.80;;;;;;;28.81;61.50;95066.59;4997300;28;20264;-81
2023/07/18 05:33:01;;;;;;;27.70;17.48;;;;;;;28.97;60.87;95066.91;5004490;28;20184;-81
2023/07/18 05:35:27;;;;;;;15.65;11.00;;;;;;;28.88;60.39;95031.69;5005560;28;20176;-81
2023/07/18 05:37:52;;;;;;;14.50;11.25;;;;;;;29.30;61.23;95075.28;4995512;28;20188;-82
2023/07/18 05:40:18;;;;;;;23.42;14.70;;;;;;;29.39;60.60;95078.78;4999190;28;20195;-82
2023/07/18 05:42:45;;;;;;;14.57;10.70;;;;;;;29.43;60.53;95073.50;5005401;28;20176;-81
2023/07/18 05:45:11;;;;;;;20.38;10.35;;;;;;;29.36;60.84;95044.16;5005511;28;20172;-82
2023/07/18 05:47:37;;;;;;;14.48;9.85;;;;;;;29.67;58.96;95076.44;5005524;28;20668;-81
2023/07/18 05:50:03;;;;;;;12.73;10.20;;;;;;;29.61;58.18;95059.53;5003212;28;20227;-81
2023/07/18 05:52:28;;;;;;;12.30;10.27;;;;;;;29.47;58.56;95015.56;5001797;28;20201;-81
2023/07/18 05:54:54;;;;;;;13.45;9.40;;;;;;;29.92;58.10;95069.31;5002266;28;20308;-82
2023/07/18 05:57:19;;;;;;;18.73;11.77;;;;;;;29.70;56.70;95034.28;5001359;28;20217;-81
2023/07/18 05:59:45;;;;;;;12.48;9.38;;;;;;;30.08;56.06;95067.63;5001868;28;21009;-81
2023/07/18 06:02:10;;;;;;;16.52;11.98;;;;;;;30.17;56.06;95062.94;5010063;28;20172;-81
2023/07/18 06:04:36;;;;;;;18.33;13.93;;;;;;;30.33;57.48;95063.97;5001705;28;20181;-82
2023/07/18 06:07:02;;;;;;;22.10;15.13;;;;;;;30.55;56.37;95062.84;5001787;28;20180;-81
2023/07/18 06:09:28;;;;;;;23.00;9.98;;;;;;;30.69;57.63;95076.19;5005293;28;20173;-81
2023/07/18 06:11:53;;;;;;;17.30;11.30;;;;;;;30.70;57.76;95042.44;5006542;28;20223;-82
2023/07/18 06:14:19;;;;;;;15.57;10.35;;;;;;;30.79;56.81;95034.19;4992871;28;20180;-83
2023/07/18 06:16:45;;;;;;;19.77;10.63;;;;;;;30.88;57.89;95024.81;5001470;28;20684;-81
2023/07/18 06:19:12;;;;;;;15.25;10.98;;;;;;;31.15;55.42;95042.47;5001455;28;20288;-80
2023/07/18 06:21:37;;;;;;;14.07;10.63;;;;;;;31.26;56.05;95040.13;4993514;28;20219;-81
2023/07/18 06:24:03;;;;;;;14.43;11.27;;;;;;;31.33;56.27;95041.16;5001545;28;20176;-81
2023/07/18 06:26:28;;;;;;;14.02;10.68;;;;;;;31.64;56.09;95078.78;5003103;28;20181;-81
2023/07/18 06:28:54;;;;;;;18.10;11.80;;;;;;;31.73;57.18;95075.97;5004505;28;20184;-81
2023/07/18 06:31:19;;;;;;;13.45;11.20;;;;;;;31.80;56.29;95073.47;5004719;28;20609;-81
2023/07/18 06:33:45;;;;;;;17.13;11.40;;;;;;;31.63;55.86;95055.41;5001310;28;20718;-81
2023/07/18 06:36:11;;;;;;;20.17;13.60;;;;;;;31.72;56.05;95075.16;5000732;28;20260;-81
2023/07/18 06:38:38;;;;;;;16.65;11.57;;;;;;;31.62;55.83;95040.22;5001940;28;20966;-81
2023/07/18 06:41:03;;;;;;;13.98;11.35;;;;;;;31.91;56.82;95079.25;5004323;28;20982;-81
2023/07/18 06:43:28;;;;;;;17.85;11.95;;;;;;;31.91;57.48;95081.97;4996411;28;20650;-81
2023/07/18 06:45:54;;;;;;;16.13;11.77;;;;;;;32.05;56.23;95080.50;5003923;28;20175;-81
2023/07/18 06:48:19;;;;;;;16.38;10.88;;;;;;;32.26;56.94;95077.66;5004612;28;20180;-81
2023/07/18 06:50:49;;;;;;;20.85;12.35;;;;;;;32.42;55.09;95078.56;5003154;28;20192;-81
2023/07/18 06:53:17;;;;;;;17.65;11.02;;;;;;;32.35;54.91;95036.63;4997955;28;20165;-81
2023/07/18 06:55:46;;;;;;;18.15;12.20;;;;;;;32.41;53.92;95043.47;5003734;28;20256;-81
2023/07/18 06:58:12;;;;;;;16.45;12.38;;;;;;;32.53;53.71;95062.50;4993344;28;20165;-81
2023/07/18 07:00:39;;;;;;;18.35;11.20;;;;;;;32.74;55.35;95084.19;5000971;28;20239;-81
2023/07/18 07:03:04;;;;;;;17.27;11.32;;;;;;;32.69;55.62;95060.69;4985565;28;20633;-81
2023/07/18 07:05:30;;;;;;;17.20;10.70;;;;;;;32.93;54.75;95079.69;5004011;28;20184;-81
2023/07/18 07:07:55;;;;;;;27.17;11.10;;;;;;;32.96;55.42;95050.88;5003322;28;20182;-81
2023/07/18 07:10:21;;;;;;;24.27;11.80;;;;;;;33.27;53.95;95085.69;5000474;28;20169;-80
2023/07/18 07:12:47;;;;;;;13.43;10.85;;;;;;;33.31;53.10;95075.63;5001110;28;20196;-80
2023/07/18 07:15:13;;;;;;;17.58;10.60;;;;;;;33.49;53.75;95081.56;5002742;28;20663;-80
2023/07/18 07:17:39;;;;;;;14.45;11.15;;;;;;;33.53;54.60;95080.53;4986292;28;20188;-80
2023/07/18 07:20:12;;;;;;;14.40;11.13;;;;;;;33.56;53.71;95081.75;5003543;28;20172;-80
2023/07/18 07:22:38;;;;;;;18.00;10.80;;;;;;;33.66;53.04;95081.22;5000725;28;20219;-80
2023/07/18 07:25:04;;;;;;;18.88;12.85;;;;;;;33.75;52.38;95075.63;5000845;28;20173;-80
2023/07/18 07:27:29;;;;;;;19.33;11.63;;;;;;;33.83;52.61;95083.63;4983028;28;20188;-80
2023/07/18 07:29:55;;;;;;;18.52;11.18;;;;;;;33.89;53.33;95076.78;5000834;28;20169;-80
2023/07/18 07:32:20;;;;;;;25.58;11.57;;;;;;;33.93;51.73;95068.66;5001525;28;20689;-80
2023/07/18 07:34:46;;;;;;;16.13;10.85;;;;;;;34.06;51.08;95073.69;5002884;28;20173;-80
2023/07/18 07:37:11;;;;;;;15.55;10.82;;;;;;;34.20;51.61;95086.06;5008633;28;20180;-79
2023/07/18 07:39:36;;;;;;;22.27;12.02;;;;;;;34.25;50.61;95083.88;5001138;28;20601;-80
2023/07/18 07:42:02;;;;;;;21.15;11.93;;;;;;;34.01;50.44;95037.59;5006403;28;20179;-80
2023/07/18 07:44:27;;;;;;;19.95;12.05;;;;;;;34.37;53.23;95082.97;5002723;28;20169;-80
2023/07/18 07:46:55;;;;;;;16.40;11.18;;;;;;;34.16;51.83;95039.53;5003627;28;20179;-80
2023/07/18 07:49:21;;;;;;;20.25;11.23;;;;;;;34.39;51.13;95067.81;5003597;28;20230;-78
2023/07/18 07:51:46;;;;;;;13.90;10.63;;;;;;;34.57;50.33;95076.41;5000786;28;20634;-80
2023/07/18 07:54:12;;;;;;;15.95;11.20;;;;;;;34.58;50.53;95067.03;5000511;28;20845;-79
2023/07/18 07:56:37;;;;;;;17.77;11.15;;;;;;;34.38;50.41;95081.84;5000180;28;20260;-77
2023/07/18 07:59:03;;;;;;;27.27;11.57;;;;;;;34.09;51.09;95075.69;4991968;28;20602;-77
2023/07/18 08:01:28;;;;;;;19.85;11.45;;;;;;;34.05;53.03;95076.75;4999999;28;20206;-77
2023/07/18 08:03:53;;;;;;;14.25;11.27;;;;;;;34.13;51.64;95069.50;5009974;28;20271;-76
2023/07/18 08:06:19;;;;;;;23.75;16.73;;;;;;;34.23;50.74;95075.22;5005499;28;20567;-76
2023/07/18 08:08:44;;;;;;;16.80;10.32;;;;;;;34.21;51.90;95065.78;4991213;28;20193;-76
2023/07/18 08:11:09;;;;;;;11.90;10.60;;;;;;;34.27;52.23;95073.38;4991666;28;20196;-76
2023/07/18 08:13:35;;;;;;;16.38;10.48;;;;;;;34.38;52.38;95068.97;5006162;28;20560;-76
2023/07/18 08:16:00;;;;;;;17.25;10.70;;;;;;;34.50;51.45;95073.53;4993843;28;20180;-77
2023/07/18 08:18:26;;;;;;;23.58;11.93;;;;;;;34.24;49.78;95063.19;5004539;28;20181;-76
2023/07/18 08:20:51;;;;;;;19.73;10.27;;;;;;;34.03;53.51;95047.03;5002949;28;20629;-79
2023/07/18 08:23:16;;;;;;;12.05;10.70;;;;;;;34.19;52.84;95049.75;5001609;28;20703;-83
2023/07/18 08:25:43;;;;;;;15.68;10.52;;;;;;;34.53;51.55;95070.03;4986234;28;20195;-79
2023/07/18 08:28:09;;;;;;;19.38;13.02;;;;;;;34.59;51.25;95056.91;5003904;28;20215;-78
2023/07/18 08:30:35;;;;;;;13.85;9.88;;;;;;;34.60;51.66;95061.19;4995263;28;20216;-77
2023/07/18 08:33:00;;;;;;;14.10;8.98;;;;;;;34.53;49.14;95061.84;5003300;28;20661;-77
2023/07/18 08:35:25;;;;;;;11.20;9.25;;;;;;;34.56;49.50;95066.59;5003260;28;20177;-78
2023/07/18 08:37:51;;;;;;;11.80;9.65;;;;;;;34.56;49.33;95057.59;5001245;28;20250;-78
2023/07/18 08:40:17;;;;;;;19.38;10.30;;;;;;;34.48;50.67;95064.06;4997396;28;20653;-81
2023/07/18 08:42:42;;;;;;;10.90;9.13;;;;;;;34.58;50.63;95067.03;5003280;28;20192;-82
2023/07/18 08:45:10;;;;;;;29.48;9.90;;;;;;;34.72;50.40;95064.59;5000372;28;20222;-84
2023/07/18 08:47:37;;;;;;;15.63;9.48;;;;;;;34.86;48.61;95068.78;5006673;28;20177;-80
2023/07/18 08:50:03;;;;;;;14.73;10.35;;;;;;;34.73;48.33;95022.44;5009078;28;20256;-83
2023/07/18 08:52:28;;;;;;;16.50;9.55;;;;;;;34.79;48.99;95028.41;5007475;28;20774;-82
2023/07/18 08:54:54;;;;;;;18.13;10.10;;;;;;;34.77;51.30;95022.50;5007375;28;20180;-82
2023/07/18 08:57:20;;;;;;;17.33;9.48;;;;;;;34.96;50.51;95035.38;5005968;28;20604;-81
2023/07/18 08:59:47;;;;;;;14.70;9.95;;;;;;;35.26;47.67;95065.72;5002322;28;20192;-83
2023/07/18 09:02:12;;;;;;;15.52;11.60;;;;;;;35.17;47.92;95063.97;4982994;28;20183;-81
2023/07/18 09:04:38;;;;;;;14.75;10.60;;;;;;;34.98;48.03;95063.97;5001455;28;20186;-82
2023/07/18 09:07:04;;;;;;;13.63;9.48;;;;;;;34.96;50.07;95057.28;5000974;28;20199;-82
2023/07/18 09:09:29;;;;;;;15.48;10.38;;;;;;;34.92;49.83;95054.47;4999946;28;20657;-81
2023/07/18 09:12:04;;;;;;;18.67;11.25;;;;;;;35.03;50.41;95047.25;5002113;28;20598;-81
2023/07/18 09:14:32;;;;;;;11.15;9.05;;;;;;;35.00;49.87;95028.03;4995459;28;20180;-81
2023/07/18 09:17:03;;;;;;;20.45;11.77;;;;;;;35.00;48.51;95038.97;4995932;28;20181;-82
2023/07/18 09:19:41;;;;;;;16.10;10.85;;;;;;;34.94;51.70;95049.41;4996479;28;20207;-81
2023/07/18 09:22:15;;;;;;;13.73;10.15;;;;;;;35.03;51.33;95052.72;5002424;28;20169;-81
2023/07/18 09:24:42;;;;;;;11.82;9.80;;;;;;;35.16;51.62;95059.63;4997871;28;20208;-81
2023/07/18 09:27:18;;;;;;;15.73;12.00;;;;;;;35.18;49.81;95048.31;4991744;28;20627;-81
2023/07/18 09:29:45;;;;;;;17.73;12.27;;;;;;;35.31;48.17;95044.28;5000760;28;20227;-82
2023/07/18 09:32:18;;;;;;;16.80;11.80;;;;;;;35.31;49.53;95046.22;4988735;28;20273;-81
2023/07/18 09:34:54;;;;;;;15.07;11.80;;;;;;;35.31;51.12;95038.00;5011421;28;20531;-81
2023/07/18 09:37:20;;;;;;;15.90;11.88;;;;;;;35.46;50.07;95045.34;5010610;28;20176;-81
2023/07/18 09:39:46;;;;;;;15.25;10.38;;;;;;;35.43;49.96;95049.59;5007673;28;20285;-81
2023/07/18 09:42:12;;;;;;;17.42;9.90;;;;;;;35.47;50.34;95038.69;5007282;28;20172;-81
2023/07/18 09:44:40;;;;;;;16.45;10.52;;;;;;;35.43;49.57;95035.91;5000513;28;20195;-80
2023/07/18 09:47:06;;;;;;;13.73;10.02;;;;;;;35.35;48.59;95027.94;4999141;28;20183;-82
2023/07/18 09:49:33;;;;;;;16.48;10.88;;;;;;;35.44;49.22;95047.66;4998876;28;20176;-83
2023/07/18 09:52:04;;;;;;;15.48;10.88;;;;;;;35.36;47.83;95038.53;5002012;28;20289;-82
2023/07/18 09:54:33;;;;;;;17.63;10.38;;;;;;;35.18;48.67;95032.69;4987456;28;20259;-80
2023/07/18 09:57:03;;;;;;;14.52;10.00;;;;;;;34.99;49.02;94999.88;5001832;28;20220;-82
2023/07/18 09:59:29;;;;;;;15.73;9.23;;;;;;;35.17;48.11;95024.84;4999288;28;20169;-81
2023/07/18 10:01:55;;;;;;;11.02;9.18;;;;;;;35.11;48.20;95021.63;5001297;28;20218;-80
2023/07/18 10:04:21;;;;;;;10.80;9.70;;;;;;;35.03;48.25;95033.56;4981316;28;20173;-82
2023/07/18 10:06:48;;;;;;;13.73;9.73;;;;;;;34.88;49.09;94998.88;5000724;28;20184;-81
2023/07/18 10:09:14;;;;;;;9.98;8.60;;;;;;;34.98;49.01;95006.50;4999365;28;20259;-81
2023/07/18 10:12:05;;;;;;;12.40;9.52;;;;;;;34.96;47.77;94999.78;5002966;28;20415;-80
2023/07/18 10:14:48;;;;;;;11.02;8.07;;;;;;;35.03;48.07;95006.19;4994620;28;20209;-81
2023/07/18 10:17:43;;;;;;;10.65;7.28;;;;;;;35.04;44.71;95004.25;4985236;28;20164;-82
2023/07/18 10:20:18;;;;;;;9.13;7.60;;;;;;;35.08;46.33;95016.06;4962833;28;20554;-81
2023/07/18 10:22:55;;;;;;;16.88;9.88;;;;;;;34.90;47.19;95014.94;4998681;28;20179;-81
2023/07/18 10:25:21;;;;;;;12.95;8.90;;;;;;;34.75;47.54;95013.88;4986899;28;20200;-81
2023/07/18 10:27:48;;;;;;;10.20;9.05;;;;;;;34.73;47.48;95021.63;5002734;28;20184;-80
2023/07/18 10:30:24;;;;;;;13.82;6.85;;;;;;;34.53;46.81;94992.66;5001296;28;20220;-82
2023/07/18 10:32:54;;;;;;;10.02;6.55;;;;;;;34.63;45.20;95011.25;4999673;28;20279;-81
2023/07/18 10:35:22;;;;;;;9.07;6.32;;;;;;;34.51;44.14;94990.28;5002586;28;20268;-82
2023/07/18 10:37:56;;;;;;;9.32;6.32;;;;;;;34.67;45.29;95018.38;4998319;28;20161;-81
2023/07/18 10:40:38;;;;;;;10.45;6.07;;;;;;;34.59;43.45;95024.88;4982881;28;20184;-80
2023/07/18 10:43:09;;;;;;;8.80;5.72;;;;;;;34.53;41.79;95026.28;5007074;28;20290;-79
2023/07/18 10:45:41;;;;;;;7.95;4.60;;;;;;;34.35;40.61;95003.22;5003083;28;20176;-80
2023/07/18 10:48:10;;;;;;;9.32;5.30;;;;;;;34.17;41.87;95005.56;5001477;28;20185;-81
2023/07/18 10:50:36;;;;;;;10.32;4.82;;;;;;;34.20;42.71;95007.59;5000748;28;20193;-84
2023/07/18 10:53:02;;;;;;;9.75;4.80;;;;;;;34.26;42.83;95013.59;5000947;28;20234;-82
2023/07/18 10:55:27;;;;;;;6.55;4.70;;;;;;;34.06;42.73;94985.41;5002592;28;20180;-84
2023/07/18 10:57:54;;;;;;;4.93;4.20;;;;;;;34.22;39.38;95012.69;4997542;28;20247;-83
2023/07/18 11:00:20;;;;;;;7.65;4.00;;;;;;;34.01;38.89;94997.41;5002051;28;20654;-82
2023/07/18 11:02:45;;;;;;;8.75;3.70;;;;;;;33.92;37.13;94987.81;5003568;28;20207;-83
2023/07/18 11:05:12;;;;;;;9.23;4.28;;;;;;;33.94;38.25;95012.84;5006252;28;20204;-84
2023/07/18 11:07:48;;;;;;;3.97;3.50;;;;;;;33.69;38.86;94979.47;5004130;28;20250;-81
2023/07/18 11:10:15;;;;;;;7.15;4.00;;;;;;;33.92;39.33;95009.66;4998132;28;20172;-81
2023/07/18 11:12:43;;;;;;;5.70;3.88;;;;;;;33.96;40.34;95018.75;5003382;28;20204;-81
2023/07/18 11:15:10;;;;;;;7.53;4.45;;;;;;;34.00;38.03;95011.41;5004849;28;20874;-82
2023/07/18 11:17:38;;;;;;;5.82;3.75;;;;;;;34.00;37.73;95014.16;4991930;28;20180;-81